createdAt,value
2017-08-09T00:00:03.266Z,16.9
2017-08-09T00:15:02.955Z,16.9
2017-08-09T00:30:02.621Z,16.5
2017-08-09T00:45:03.430Z,16.7
2017-08-09T01:00:03.054Z,16.5
2017-08-09T01:15:02.723Z,16.7
2017-08-09T01:30:03.400Z,16.9
2017-08-09T01:45:02.974Z,16.8
2017-08-09T02:00:02.695Z,16.8
2017-08-09T02:15:03.321Z,16.6
2017-08-09T02:30:02.980Z,16.8
2017-08-09T02:45:02.574Z,16.9
2017-08-09T03:00:03.190Z,16.7
2017-08-09T03:15:02.790Z,16.8
2017-08-09T03:30:03.458Z,16.8
2017-08-09T03:45:03.016Z,16.9
2017-08-09T04:00:02.601Z,16.8
2017-08-09T04:15:03.229Z,16.5
2017-08-09T04:30:02.926Z,16.6
2017-08-09T04:45:03.483Z,16.4
2017-08-09T05:00:03.091Z,16.6
2017-08-09T05:15:02.745Z,16.6
2017-08-09T05:30:03.538Z,16.6
2017-08-09T05:45:03.198Z,17.1
2017-08-09T06:00:02.843Z,16.9
2017-08-09T06:15:03.441Z,16.8
2017-08-09T06:30:03.173Z,17.1
2017-08-09T06:45:02.815Z,17
2017-08-09T07:00:03.452Z,16.9
2017-08-09T07:15:03.145Z,17.4
2017-08-09T07:30:03.182Z,17.4
2017-08-09T07:45:02.856Z,17.6
2017-08-09T08:00:03.744Z,18.1
2017-08-09T08:15:03.376Z,18.1
2017-08-09T08:30:03.522Z,18.9
2017-08-09T08:45:03.140Z,19.2
2017-08-09T09:00:02.836Z,19.9
2017-08-09T09:15:03.760Z,20.6
2017-08-09T09:30:03.447Z,20.7
2017-08-09T09:45:03.152Z,20.8
2017-08-09T10:00:02.796Z,20.8
2017-08-09T10:15:03.413Z,21.6
2017-08-09T10:30:03.029Z,21.3
2017-08-09T10:45:02.650Z,21.8
2017-08-09T11:00:03.234Z,22.2
2017-08-09T11:15:02.975Z,22.4
2017-08-09T11:30:02.623Z,22
2017-08-09T11:45:03.232Z,22.6
2017-08-09T12:00:02.830Z,23.2
2017-08-09T12:15:03.590Z,23.9
2017-08-09T12:30:03.368Z,24.8
2017-08-09T12:45:02.915Z,24.8
2017-08-09T13:00:02.559Z,24.4
2017-08-09T13:15:03.225Z,24.6
2017-08-09T13:30:02.959Z,25.6
2017-08-09T13:45:02.544Z,25.4
2017-08-09T14:00:03.295Z,24.9
2017-08-09T14:15:03.081Z,25.2
2017-08-09T14:30:02.921Z,24.7
2017-08-09T14:45:03.576Z,25.3
2017-08-09T15:00:03.209Z,24.8
2017-08-09T15:15:02.853Z,24.7
2017-08-09T15:30:03.686Z,24.3
2017-08-09T15:45:03.404Z,24.3
2017-08-09T16:00:03.013Z,23.8
2017-08-09T16:15:02.685Z,23.7
2017-08-09T16:30:03.365Z,23.5
2017-08-09T16:45:03.053Z,23.2
2017-08-09T17:00:02.640Z,23.1
2017-08-09T17:15:03.250Z,22.9
2017-08-09T17:30:03.080Z,22.8
2017-08-09T17:45:02.711Z,22.7
2017-08-09T18:00:03.335Z,22.5
2017-08-09T18:15:03.022Z,22.2
2017-08-09T18:30:02.674Z,21.9
2017-08-09T18:45:03.273Z,21.8
2017-08-09T19:00:02.918Z,21.5
2017-08-09T19:15:02.582Z,21.6
2017-08-09T19:30:03.304Z,20.9
2017-08-09T19:45:03.022Z,20.4
2017-08-09T20:00:02.618Z,20.1
2017-08-09T20:15:03.189Z,19.5
2017-08-09T20:30:02.849Z,19.4
2017-08-09T20:45:03.397Z,19.7
2017-08-09T21:00:03.074Z,19.4
2017-08-09T21:15:02.786Z,19.4
2017-08-09T21:30:03.452Z,19.5
2017-08-09T21:45:03.084Z,19.4
2017-08-09T22:00:02.686Z,19.4
2017-08-09T22:15:03.262Z,19.5
2017-08-09T22:30:02.984Z,18.5
2017-08-09T22:45:02.620Z,18.7
2017-08-09T23:00:03.552Z,18.8
2017-08-09T23:15:03.316Z,18.6
2017-08-09T23:30:03.018Z,18.1
2017-08-09T23:45:02.641Z,18.1
